Document
Identifier
ClassDocument
Number
Document NameDateFile Size (KB)Download
12331911 Well Logs 1907609 GAMMA RAY/ CCL CEMENT BOND VDL 01/18/2011 12037666 Download
04516216 Well Logs 1907802 CBL 01/18/2011 13724888 Download
04516216 Well Logs 1907803 PULSE NEUTRON DECAY LOG 01/18/2011 12991056 Download
12311265 Well Logs 1907806 GAMMA RAY/ CCL CEMENT BOND VDL 01/18/2011 6233480 Download
12314259 Well Logs 1907807 GAMMA RAY/CCL CEMENT BOND VDL 01/18/2011 724772 Download
12330149 Well Logs 1907808 CEMENT BOND GAMMA RAY COLLAR CORRELATION LOG 01/18/2011 6438090 Download
12330149 Well Logs 1907809 DUAL INDUCTION GUARD LOG GAMMA RAY 01/18/2011 3362074 Download
12330149 Well Logs 1907810 COMPENSATED DENSITY COMPENSATED NEUTRON MICROLOG 01/18/2011 3493296 Download
12331073 Well Logs 1907795 SONIC BOND LOG GAMMA RAY CCL 01/18/2011 9409018 Download
12331496 Well Logs 1907742 CEMENT BOND LOG GAMMA RAY CCL VDL 01/18/2011 8995914 Download
12331073 Well Logs 1907796 SPECTRAL DENSITY DUAL SPACED NEUTRON ARRAY COMP. TRUE REISISTIVIT 01/18/2011 19695430 Download
04516216 Well Logs 1907804 PND-S CASED HOLE TRIPLE COMBO 01/18/2011 13209052 Download
04516216 Well Logs 1907805 MUD LOG 01/18/2011 12275936 Download
10311538 Well Logs 1907750 IMAGING BEHIND CASING ULTRASONIC TOOL CCL-GAMMA RAY 01/18/2011 60468640 Download
10311538 Well Logs 1907749 CORRELATION LOG GAMMA RAY-CCL 01/18/2011 8620836 Download
10311536 Well Logs 1907748 PERFORM-DRILLING MECHANICS 2IN/HR TIME BASED REAL TIME LOG 01/18/2011 6748638 Download
10311536 Well Logs 1907747 RADIAL ANALYSIS BOND LOG 01/18/2011 19676640 Download
10311536 Well Logs 1907746 RESERVOIR PERFORMANCE MONITOR GASVIEW SATURATION ANALYSIS 01/18/2011 8921658 Download
10311536 Well Logs 1907745 RESERVOIR PERFORMANCE MONITOR 01/18/2011 9906334 Download
10311543 Well Logs 1907760 COMPACT DROP OFF SHALLOW FOCUSED LOG 01/18/2011 15378270 Download
10311543 Well Logs 1907761 COMPACT DROP OFF LQC LOG 01/18/2011 14023412 Download
10311543 Well Logs 1907762 COMPACT WELL SHUTTLE HOLE VOLUME LOG 01/18/2011 7629556 Download
10311543 Well Logs 1907763 COMPACT WELL SHUTTLE ARRAY INDUCTION SHALLOW FOCUSED LOG 01/18/2011 14838182 Download
10311543 Well Logs 1907764 COMPACT WELL SHUTTLE COMP PHOTO DENSITY COMP DUAL NEUTRON LOG 01/18/2011 17992838 Download
10311543 Well Logs 1907765 PERFORM-APWD 2IN/HR TIME BASED REAL TIME LOG 01/18/2011 5797078 Download
12345678910...